createdAt,value
2022-11-17T00:00:42.462Z,99972.91
2022-11-17T00:03:45.575Z,99975.06
2022-11-17T00:06:49.143Z,99973.41
2022-11-17T00:09:52.108Z,99973.34
2022-11-17T00:13:14.080Z,99975.25
2022-11-17T00:16:19.266Z,99968.78
2022-11-17T00:19:39.952Z,99965.28
2022-11-17T00:22:43.174Z,99958.47
2022-11-17T00:25:46.142Z,99953.47
2022-11-17T00:28:53.858Z,99949.41
2022-11-17T00:32:14.519Z,99955.31
2022-11-17T00:35:17.732Z,99949.25
2022-11-17T00:38:23.653Z,99953.97
2022-11-17T00:41:26.647Z,99953.00
2022-11-17T00:44:31.609Z,99950.66
2022-11-17T00:47:36.984Z,99941.19
2022-11-17T00:50:40.128Z,99932.06
2022-11-17T00:53:43.070Z,99935.38
2022-11-17T00:56:46.206Z,99939.78
2022-11-17T00:59:50.485Z,99939.88
2022-11-17T01:02:55.283Z,99942.72
2022-11-17T01:06:05.770Z,99956.66
2022-11-17T01:09:13.336Z,99940.81
2022-11-17T01:12:16.259Z,99940.72
2022-11-17T01:15:21.093Z,99941.72
2022-11-17T01:18:24.262Z,99931.59
2022-11-17T01:21:29.373Z,99938.41
2022-11-17T01:24:32.320Z,99935.56
2022-11-17T01:27:35.290Z,99932.16
2022-11-17T01:30:39.965Z,99933.09
2022-11-17T01:33:43.733Z,99933.25
2022-11-17T01:37:04.345Z,99928.09
2022-11-17T01:40:10.489Z,99928.09
2022-11-17T01:43:13.415Z,99921.28
2022-11-17T01:46:33.385Z,99926.44
2022-11-17T01:49:36.339Z,99916.28
2022-11-17T01:52:41.007Z,99904.53
2022-11-17T01:55:47.909Z,99908.75
2022-11-17T01:58:57.432Z,99901.03
2022-11-17T02:02:01.958Z,99906.19
2022-11-17T02:05:17.797Z,99912.50
2022-11-17T02:08:23.867Z,99907.25
2022-11-17T02:11:28.071Z,99910.66
2022-11-17T02:14:31.506Z,99907.84
2022-11-17T02:17:38.877Z,99904.53
2022-11-17T02:20:55.925Z,99910.84
2022-11-17T02:24:34.587Z,99908.75
2022-11-17T02:27:58.249Z,99901.19
2022-11-17T02:31:14.410Z,99896.97
2022-11-17T02:34:47.689Z,99887.41
2022-11-17T02:38:05.558Z,99889.91
2022-11-17T02:41:13.692Z,99886.84
2022-11-17T02:44:27.438Z,99879.75
2022-11-17T02:47:34.230Z,99886.56
2022-11-17T02:50:39.154Z,99887.09
2022-11-17T02:53:42.650Z,99880.84
2022-11-17T02:56:45.640Z,99872.88
2022-11-17T02:59:50.930Z,99868.63
2022-11-17T03:03:26.893Z,99866.31
2022-11-17T03:06:40.534Z,99871.41
2022-11-17T03:09:51.120Z,99866.97
2022-11-17T03:13:01.218Z,99860.44
2022-11-17T03:16:16.278Z,99864.66
2022-11-17T03:19:26.210Z,99868.81
2022-11-17T03:22:37.776Z,99876.59
2022-11-17T03:25:44.306Z,99869.91
2022-11-17T03:28:47.963Z,99864.66
2022-11-17T03:31:59.076Z,99853.53
2022-11-17T03:35:08.592Z,99853.69
2022-11-17T03:38:15.364Z,99854.44
2022-11-17T03:41:20.662Z,99861.50
2022-11-17T03:44:25.857Z,99866.75
2022-11-17T03:47:34.532Z,99867.66
2022-11-17T03:50:41.940Z,99856.59
2022-11-17T03:53:46.288Z,99855.72
2022-11-17T03:56:55.458Z,99849.56
2022-11-17T04:00:03.213Z,99844.41
2022-11-17T04:03:16.941Z,99838.25
2022-11-17T04:06:19.954Z,99837.94
2022-11-17T04:09:24.617Z,99835.41
2022-11-17T04:12:45.903Z,99838.09
2022-11-17T04:15:58.970Z,99844.97
2022-11-17T04:19:06.006Z,99830.63
2022-11-17T04:22:09.354Z,99830.53
2022-11-17T04:25:33.221Z,99823.72
2022-11-17T04:28:38.728Z,99818.41
2022-11-17T04:31:41.702Z,99817.50
2022-11-17T04:34:45.981Z,99796.91
2022-11-17T04:37:48.932Z,99810.69
2022-11-17T04:41:05.984Z,99808.84
2022-11-17T04:44:11.302Z,99792.56
2022-11-17T04:47:14.980Z,99804.28
2022-11-17T04:50:19.297Z,99802.53
2022-11-17T04:53:22.585Z,99798.22
2022-11-17T04:56:26.471Z,99802.38
2022-11-17T04:59:31.604Z,99794.91
2022-11-17T05:02:34.563Z,99799.22
2022-11-17T05:05:38.881Z,99796.56
2022-11-17T05:08:42.371Z,99793.63
2022-11-17T05:12:02.918Z,99786.09
2022-11-17T05:15:07.810Z,99791.97
2022-11-17T05:18:09.834Z,99786.09
2022-11-17T05:21:14.089Z,99780.94
2022-11-17T05:24:17.105Z,99779.09
2022-11-17T05:27:20.359Z,99787.75
2022-11-17T05:30:23.313Z,99781.59
2022-11-17T05:33:26.647Z,99766.97
2022-11-17T05:36:31.457Z,99760.81
2022-11-17T05:39:34.405Z,99762.47
2022-11-17T05:42:37.348Z,99758.91
2022-11-17T05:45:40.348Z,99752.84
2022-11-17T05:48:43.370Z,99744.19
2022-11-17T05:51:52.498Z,99746.75
2022-11-17T05:54:55.987Z,99744.00
2022-11-17T05:58:07.831Z,99741.25
2022-11-17T06:01:12.760Z,99750.63
2022-11-17T06:04:20.631Z,99754.13
2022-11-17T06:07:25.008Z,99762.53
2022-11-17T06:10:31.628Z,99758.94
2022-11-17T06:13:36.641Z,99760.69
2022-11-17T06:16:44.983Z,99754.53
2022-11-17T06:19:54.250Z,99760.41
2022-11-17T06:23:02.288Z,99760.41
2022-11-17T06:26:08.549Z,99770.53
2022-11-17T06:29:12.671Z,99767.88
2022-11-17T06:32:17.346Z,99756.56
2022-11-17T06:35:20.665Z,99760.88
2022-11-17T06:38:25.179Z,99747.72
2022-11-17T06:41:28.392Z,99747.53
2022-11-17T06:44:31.320Z,99751.03
2022-11-17T06:47:34.253Z,99743.03
2022-11-17T06:50:37.255Z,99742.22
2022-11-17T06:53:41.850Z,99749.00
2022-11-17T06:56:45.099Z,99742.22
2022-11-17T06:59:48.126Z,99740.38
2022-11-17T07:02:51.085Z,99742.88
2022-11-17T07:05:54.012Z,99739.25
2022-11-17T07:08:58.264Z,99737.44
2022-11-17T07:12:01.221Z,99727.88
2022-11-17T07:15:04.581Z,99729.72
2022-11-17T07:18:07.493Z,99733.03
2022-11-17T07:21:12.273Z,99722.50
2022-11-17T07:24:16.677Z,99718.13
2022-11-17T07:27:19.612Z,99724.19
2022-11-17T07:30:22.566Z,99736.06
2022-11-17T07:33:26.012Z,99736.97
2022-11-17T07:36:29.027Z,99737.63
2022-11-17T07:39:33.256Z,99746.25
2022-11-17T07:42:36.311Z,99753.09
2022-11-17T07:45:44.474Z,99747.75
2022-11-17T07:48:51.312Z,99754.47
2022-11-17T07:52:01.254Z,99770.84
2022-11-17T07:55:08.930Z,99761.19
2022-11-17T07:58:18.023Z,99766.16
2022-11-17T08:01:27.900Z,99773.78
2022-11-17T08:04:44.005Z,99761.72
2022-11-17T08:11:20.430Z,99763.00
2022-11-17T08:14:23.862Z,99763.94
2022-11-17T08:17:32.743Z,99763.94
2022-11-17T08:20:39.952Z,99755.09
2022-11-17T08:23:43.135Z,99759.22
2022-11-17T08:26:47.655Z,99766.91
2022-11-17T08:29:50.590Z,99762.63
2022-11-17T08:32:54.929Z,99757.47
2022-11-17T08:35:58.945Z,99750.41
2022-11-17T08:39:02.536Z,99748.84
2022-11-17T08:42:06.901Z,99751.44
2022-11-17T08:45:11.516Z,99743.69
2022-11-17T08:48:14.466Z,99740.19
2022-11-17T08:51:17.471Z,99741.94
2022-11-17T08:54:20.426Z,99750.56
2022-11-17T08:57:25.096Z,99740.09
2022-11-17T09:00:28.136Z,99740.91
2022-11-17T09:03:31.065Z,99742.56
2022-11-17T09:06:33.983Z,99751.13
2022-11-17T09:09:37.000Z,99739.97
2022-11-17T09:12:41.352Z,99748.47
2022-11-17T09:15:44.357Z,99744.97
2022-11-17T09:18:47.510Z,99752.69
2022-11-17T09:21:50.570Z,99762.91
2022-11-17T09:24:53.665Z,99755.72
2022-11-17T09:27:58.291Z,99750.78
2022-11-17T09:31:06.849Z,99765.38
2022-11-17T09:34:09.886Z,99754.19
2022-11-17T09:37:13.183Z,99745.69
2022-11-17T09:40:20.957Z,99754.19
2022-11-17T09:43:30.050Z,99755.81
2022-11-17T09:46:52.958Z,99745.50
2022-11-17T09:50:00.589Z,99734.16
2022-11-17T09:53:13.725Z,99731.69
2022-11-17T09:56:17.976Z,99741.34
2022-11-17T09:59:24.914Z,99735.38
2022-11-17T10:02:28.011Z,99742.19
2022-11-17T10:05:34.572Z,99740.16
2022-11-17T10:08:44.019Z,99740.16
2022-11-17T10:11:48.279Z,99743.47
2022-11-17T10:14:53.086Z,99745.13
2022-11-17T10:17:56.460Z,99745.03
2022-11-17T10:20:59.632Z,99733.88
2022-11-17T10:24:02.610Z,99741.44
2022-11-17T10:27:09.527Z,99733.59
2022-11-17T10:30:24.350Z,99724.09
2022-11-17T10:33:39.491Z,99724.75
2022-11-17T10:36:49.635Z,99726.50
2022-11-17T10:40:13.736Z,99730.75
2022-11-17T10:43:26.815Z,99722.25
2022-11-17T10:46:39.375Z,99731.84
2022-11-17T10:49:44.969Z,99720.59
2022-11-17T10:52:49.238Z,99708.63
2022-11-17T10:55:59.246Z,99714.50
2022-11-17T10:59:13.869Z,99705.13
2022-11-17T11:02:30.130Z,99710.09
2022-11-17T11:05:33.143Z,99697.91
2022-11-17T11:08:48.303Z,99688.44
2022-11-17T11:11:54.248Z,99679.75
2022-11-17T11:15:00.979Z,99677.19
2022-11-17T11:18:12.656Z,99671.94
2022-11-17T11:21:25.821Z,99678.75
2022-11-17T11:24:38.279Z,99666.78
2022-11-17T11:27:55.757Z,99664.09
2022-11-17T11:31:07.134Z,99662.34
2022-11-17T11:34:35.692Z,99670.91
2022-11-17T11:37:48.047Z,99661.63
2022-11-17T11:41:06.357Z,99657.19
2022-11-17T11:44:33.500Z,99661.34
2022-11-17T11:47:57.513Z,99652.56
2022-11-17T11:51:06.490Z,99645.09
2022-11-17T11:54:17.315Z,99654.41
2022-11-17T11:57:26.099Z,99647.41
2022-11-17T12:00:29.185Z,99649.88
2022-11-17T12:03:36.680Z,99646.56
2022-11-17T12:06:53.711Z,99653.38
2022-11-17T12:10:03.855Z,99654.84
2022-11-17T12:13:12.066Z,99637.59
2022-11-17T12:16:19.260Z,99642.78
2022-11-17T12:19:49.941Z,99653.09
2022-11-17T12:23:14.885Z,99653.19
2022-11-17T12:26:25.750Z,99650.63
2022-11-17T12:29:32.398Z,99652.38
2022-11-17T12:32:55.348Z,99652.97
2022-11-17T12:36:30.813Z,99642.78
2022-11-17T12:40:05.342Z,99647.22
2022-11-17T12:43:23.802Z,99654.09
2022-11-17T12:46:30.266Z,99655.84
2022-11-17T12:49:48.340Z,99651.63
2022-11-17T12:53:32.579Z,99662.69
2022-11-17T12:56:48.814Z,99645.53
2022-11-17T13:00:10.031Z,99643.78
2022-11-17T13:03:17.788Z,99645.53
2022-11-17T13:06:34.782Z,99648.13
2022-11-17T13:09:38.678Z,99640.47
2022-11-17T13:12:42.940Z,99643.16
2022-11-17T13:15:50.294Z,99640.59
2022-11-17T13:18:53.295Z,99646.56
2022-11-17T13:22:00.976Z,99643.16
2022-11-17T13:25:20.476Z,99644.94
2022-11-17T13:28:30.229Z,99640.78
2022-11-17T13:31:33.341Z,99641.59
2022-11-17T13:34:36.618Z,99641.72
2022-11-17T13:37:39.585Z,99633.97
2022-11-17T13:40:44.295Z,99635.81
2022-11-17T13:43:50.828Z,99627.34
2022-11-17T13:46:53.812Z,99628.81
2022-11-17T13:49:56.922Z,99636.00
2022-11-17T13:53:03.367Z,99635.28
2022-11-17T13:56:32.658Z,99634.53
2022-11-17T13:59:39.675Z,99635.38
2022-11-17T14:02:54.514Z,99636.41
2022-11-17T14:05:58.029Z,99635.69
2022-11-17T14:09:06.271Z,99634.34
2022-11-17T14:12:10.609Z,99627.72
2022-11-17T14:15:22.760Z,99621.91
2022-11-17T14:18:37.490Z,99625.22
2022-11-17T14:22:00.367Z,99623.38
2022-11-17T14:25:05.942Z,99628.00
2022-11-17T14:28:14.036Z,99615.31
2022-11-17T14:31:19.470Z,99620.25
2022-11-17T14:34:25.097Z,99611.81
2022-11-17T14:37:30.398Z,99621.28
2022-11-17T14:40:34.042Z,99629.94
2022-11-17T14:43:37.084Z,99613.84
2022-11-17T14:46:41.783Z,99629.31
2022-11-17T14:49:45.725Z,99628.88
2022-11-17T14:52:48.663Z,99628.03
2022-11-17T14:55:51.649Z,99622.97
2022-11-17T14:58:57.295Z,99630.53
2022-11-17T15:02:01.558Z,99625.44
2022-11-17T15:05:05.067Z,99619.56
2022-11-17T15:08:10.300Z,99633.38
2022-11-17T15:11:16.968Z,99623.25
2022-11-17T15:14:20.115Z,99617.38
2022-11-17T15:17:28.498Z,99618.31
2022-11-17T15:20:31.647Z,99615.84
2022-11-17T15:23:37.661Z,99611.56
2022-11-17T15:26:40.727Z,99603.03
2022-11-17T15:29:43.757Z,99615.19
2022-11-17T15:32:48.086Z,99618.59
2022-11-17T15:36:02.528Z,99609.22
2022-11-17T15:39:06.309Z,99610.97
2022-11-17T15:42:09.226Z,99611.13
2022-11-17T15:45:12.403Z,99609.50
2022-11-17T15:48:18.844Z,99613.72
2022-11-17T15:51:24.670Z,99621.44
2022-11-17T15:54:28.594Z,99615.75
2022-11-17T15:57:31.521Z,99612.44
2022-11-17T16:00:34.935Z,99604.72
2022-11-17T16:03:39.580Z,99602.88
2022-11-17T16:06:45.354Z,99602.97
2022-11-17T16:09:50.626Z,99596.78
2022-11-17T16:12:53.641Z,99602.31
2022-11-17T16:15:56.942Z,99587.06
2022-11-17T16:19:01.348Z,99597.56
2022-11-17T16:22:04.376Z,99594.97
2022-11-17T16:25:10.348Z,99588.44
2022-11-17T16:28:13.788Z,99585.22
2022-11-17T16:31:19.661Z,99581.00
2022-11-17T16:34:24.393Z,99569.25
2022-11-17T16:37:27.371Z,99556.44
2022-11-17T16:40:31.060Z,99566.13
2022-11-17T16:43:34.442Z,99551.06
2022-11-17T16:46:44.811Z,99549.59
2022-11-17T16:49:51.592Z,99547.28
2022-11-17T16:52:54.858Z,99538.91
2022-11-17T16:56:03.919Z,99539.84
2022-11-17T16:59:07.346Z,99538.19
2022-11-17T17:02:12.482Z,99539.13
2022-11-17T17:05:16.896Z,99534.91
2022-11-17T17:08:20.118Z,99531.41
2022-11-17T17:11:23.796Z,99543.34
2022-11-17T17:14:26.896Z,99541.69
2022-11-17T17:17:29.872Z,99541.69
2022-11-17T17:20:34.323Z,99553.66
2022-11-17T17:23:37.257Z,99550.34
2022-11-17T17:26:41.045Z,99554.66
2022-11-17T17:29:44.380Z,99554.03
2022-11-17T17:32:47.366Z,99555.78
2022-11-17T17:35:52.053Z,99552.38
2022-11-17T17:38:56.534Z,99549.88
2022-11-17T17:41:59.979Z,99549.88
2022-11-17T17:45:02.942Z,99544.94
2022-11-17T17:48:07.555Z,99557.69
2022-11-17T17:51:14.760Z,99558.63
2022-11-17T17:54:20.667Z,99550.78
2022-11-17T17:57:27.598Z,99550.69
2022-11-17T18:00:35.034Z,99557.53
2022-11-17T18:03:39.636Z,99559.34
2022-11-17T18:06:47.337Z,99568.00
2022-11-17T18:09:50.402Z,99566.34
2022-11-17T18:12:53.442Z,99566.50
2022-11-17T18:15:56.828Z,99559.81
2022-11-17T18:19:01.871Z,99570.38
2022-11-17T18:22:06.295Z,99555.13
2022-11-17T18:25:13.804Z,99552.84
2022-11-17T18:28:20.859Z,99552.19
2022-11-17T18:31:26.390Z,99555.94
2022-11-17T18:34:29.336Z,99549.97
2022-11-17T18:37:39.331Z,99550.91
2022-11-17T18:40:42.497Z,99552.91
2022-11-17T18:43:45.686Z,99552.91
2022-11-17T18:46:48.989Z,99553.84
2022-11-17T18:49:52.003Z,99557.25
2022-11-17T18:52:56.466Z,99561.72
2022-11-17T18:56:02.120Z,99548.13
2022-11-17T18:59:11.186Z,99555.09
2022-11-17T19:02:14.375Z,99551.53
2022-11-17T19:05:17.734Z,99551.72
2022-11-17T19:08:22.768Z,99554.75
2022-11-17T19:11:26.349Z,99552.16
2022-11-17T19:14:29.533Z,99561.69
2022-11-17T19:17:32.623Z,99551.59
2022-11-17T19:20:35.593Z,99552.34
2022-11-17T19:23:42.596Z,99547.38
2022-11-17T19:26:47.343Z,99542.41
2022-11-17T19:29:50.611Z,99548.28
2022-11-17T19:32:57.472Z,99544.25
2022-11-17T19:36:05.000Z,99551.31
2022-11-17T19:39:09.413Z,99551.91
2022-11-17T19:42:12.920Z,99548.78
2022-11-17T19:45:16.186Z,99549.88
2022-11-17T19:48:19.133Z,99543.00
2022-11-17T19:51:24.508Z,99558.75
2022-11-17T19:54:29.442Z,99556.47
2022-11-17T19:57:32.564Z,99559.09
2022-11-17T20:00:35.751Z,99560.03
2022-11-17T20:03:39.877Z,99555.91
2022-11-17T20:06:43.015Z,99566.91
2022-11-17T20:09:47.563Z,99561.28
2022-11-17T20:12:50.617Z,99563.03
2022-11-17T20:16:01.314Z,99561.47
2022-11-17T20:19:04.498Z,99568.34
2022-11-17T20:22:07.492Z,99564.13
2022-11-17T20:25:12.199Z,99564.28
2022-11-17T20:28:15.803Z,99573.72
2022-11-17T20:31:21.284Z,99575.47
2022-11-17T20:34:27.224Z,99570.28
2022-11-17T20:37:30.512Z,99580.47
2022-11-17T20:40:34.813Z,99584.00
2022-11-17T20:43:38.216Z,99583.19
2022-11-17T20:46:41.327Z,99586.53
2022-11-17T20:49:44.459Z,99591.47
2022-11-17T20:52:47.469Z,99595.78
2022-11-17T20:55:52.302Z,99590.91
2022-11-17T20:58:55.406Z,99589.25
2022-11-17T21:01:58.350Z,99591.16
2022-11-17T21:05:01.341Z,99591.16
2022-11-17T21:08:04.529Z,99588.91
2022-11-17T21:11:32.224Z,99591.66
2022-11-17T21:14:35.341Z,99601.28
2022-11-17T21:17:55.774Z,99587.34
2022-11-17T21:20:59.788Z,99584.88
2022-11-17T21:24:03.158Z,99595.31
2022-11-17T21:27:07.463Z,99580.22
2022-11-17T21:30:12.892Z,99588.78
2022-11-17T21:33:15.856Z,99579.41
2022-11-17T21:36:22.843Z,99585.38
2022-11-17T21:39:25.762Z,99588.03
2022-11-17T21:42:30.005Z,99588.03
2022-11-17T21:45:34.476Z,99581.06
2022-11-17T21:48:38.501Z,99593.66
2022-11-17T21:51:41.649Z,99589.50
2022-11-17T21:54:45.582Z,99591.44
2022-11-17T21:57:52.667Z,99597.22
2022-11-17T22:00:55.709Z,99599.03
2022-11-17T22:03:59.175Z,99597.47
2022-11-17T22:07:02.659Z,99609.31
2022-11-17T22:10:07.036Z,99603.44
2022-11-17T22:13:12.648Z,99616.44
2022-11-17T22:16:15.991Z,99615.69
2022-11-17T22:19:20.947Z,99619.84
2022-11-17T22:22:24.009Z,99622.72
2022-11-17T22:25:44.626Z,99622.50
2022-11-17T22:28:54.119Z,99619.34
2022-11-17T22:31:57.382Z,99615.13
2022-11-17T22:35:01.688Z,99619.34
2022-11-17T22:38:04.666Z,99626.94
2022-11-17T22:41:09.883Z,99633.09
2022-11-17T22:44:15.780Z,99631.25
2022-11-17T22:47:18.812Z,99627.97
2022-11-17T22:50:21.890Z,99636.72
2022-11-17T22:53:25.516Z,99634.31
2022-11-17T22:56:28.555Z,99637.97
2022-11-17T22:59:33.189Z,99635.22
2022-11-17T23:02:36.107Z,99634.63
2022-11-17T23:05:39.178Z,99625.13
2022-11-17T23:08:42.093Z,99631.75
2022-11-17T23:11:45.051Z,99622.63
2022-11-17T23:14:49.310Z,99622.06
2022-11-17T23:17:52.266Z,99621.31
2022-11-17T23:20:55.248Z,99632.63
2022-11-17T23:23:58.174Z,99634.22
2022-11-17T23:27:01.106Z,99640.59
2022-11-17T23:30:06.710Z,99637.84
2022-11-17T23:33:09.689Z,99637.75
2022-11-17T23:36:16.435Z,99620.22
2022-11-17T23:39:19.682Z,99609.94
2022-11-17T23:42:22.771Z,99618.38
2022-11-17T23:45:27.129Z,99620.88
2022-11-17T23:48:32.146Z,99630.78
2022-11-17T23:51:38.515Z,99631.75
2022-11-17T23:54:41.440Z,99621.59
2022-11-17T23:57:44.525Z,99625.06
